• Join FlightAware (Why Join?)
  • Login
  • US Flag 
06:13AM EDT


 

Airport Tracker/Info


-or-


 

Live Flight TrackerFlight Track Log ✈ SWA1535 ✈ 30-Apr-2013 ✈ KSTL - KOMA

Flight Track Log - Related Links

Times and Time Zones

All times are in EDT time to prevent confusion due to time zone crossing. See the SWA1535 flight status page for this flight to view local times or setup timezone preferences in your user account.

Time Position Orientation Groundspeed Altitude Reporting Facility
EDT Latitude Longitude Course Direction KTS MPH feet Rate Location/Type
07:39PM 38.6864 -90.3083 168° South 203 234 4,500  Level Kansas City Center
07:40PM 38.6842 -90.3931 268° West 233 268 7,700 2,940 Climbing Kansas City Center
07:41PM 38.6908 -90.4831 275° West 270 311 10,600 3,300 Climbing Kansas City Center
07:42PM 38.7678 -90.5961 311° West 344 396 14,600 3,540 Climbing Kansas City Center
07:43PM 38.7247 -90.6649 318° Northwest  Level FlightAware Approximate
07:43PM 38.8356 -90.6925 312° West 357 411 18,000  Level Kansas City Center
07:44PM 38.9072 -90.7950 312° West 376 433 21,200 2,940 Climbing Kansas City Center
07:45PM 38.9806 -90.9011 312° West 392 451 24,100 2,400 Climbing Kansas City Center
07:46PM 39.0569 -91.0111 312° West 406 467 26,200 1,980 Climbing Kansas City Center
07:47PM 39.1281 -91.1372 306° West 432 497 28,300 2,400 Climbing Kansas City Center
07:48PM 39.1972 -91.3036 298° West 441 507 31,200 2,580 Climbing Kansas City Center
07:49PM 39.2497 -91.4422 296° West 435 501 33,700 1,320 Climbing Kansas City Center
07:50PM 39.3028 -91.5769 297° West 426 490 34,000 120 Climbing Kansas City Center
07:51PM 39.3589 -91.7203 297° West 424 488 34,000  Level Kansas City Center
07:52PM 39.4117 -91.8528 297° West 420 483 34,000  Level Kansas City Center
07:53PM 39.4633 -91.9872 296° West 420 483 34,000  Level Kansas City Center
07:54PM 39.5144 -92.1222 296° West 420 483 34,000  Level Kansas City Center
07:55PM 39.5769 -92.2817 297° West 417 480 34,000  Level Kansas City Center
07:56PM 39.6283 -92.4183 296° West 420 483 34,000  Level Kansas City Center
07:57PM 39.6917 -92.5442 303° West 429 494 34,000  Level Kansas City Center
07:58PM 39.7667 -92.6578 311° West 419 482 34,000  Level Kansas City Center
07:59PM 39.8425 -92.7714 311° West 420 483 34,000  Level Kansas City Center
08:00PM 39.9167 -92.8878 310° West 419 482 34,000  Level Kansas City Center
08:01PM 40.0053 -93.0278 310° West 418 481 34,000  Level Kansas City Center
08:02PM 40.0786 -93.1436 310° West 417 480 34,000  Level Kansas City Center
08:03PM 40.1511 -93.2578 310° West 411 473 34,000  Level Kansas City Center
08:04PM 40.2258 -93.3742 310° West 416 479 34,000  Level Kansas City Center
08:05PM 40.2994 -93.4914 309° West 418 481 34,000  Level Kansas City Center
08:07PM 40.3861 -93.6306 309° West 417 480 34,000  Level Minneapolis Center
08:08PM 40.4661 -93.7764 306° West 414 476 34,000  Level Minneapolis Center
08:09PM 40.4972 -93.9189 286° West 407 468 34,000 -60 Level Minneapolis Center
08:10PM 40.5311 -94.0603 288° West 408 470 33,900 -1,380 Descending Minneapolis Center
08:11PM 40.5653 -94.2006 288° West 405 466 31,200 -2,640 Descending Minneapolis Center
08:13PM 40.6353 -94.4806 288° West 403 464 26,200 -2,460 Descending Kansas City Center
08:14PM 40.6661 -94.6086 288° West 392 451 24,000 -2,220 Descending Kansas City Center
08:15PM 40.7033 -94.7658 287° West 377 434 21,400 -2,160 Descending Minneapolis Center
08:16PM 40.7311 -94.8917 286° West 362 417 19,300 -2,100 Descending Minneapolis Center
08:17PM 40.7586 -95.0103 287° West 344 396 17,200 -2,100 Descending Minneapolis Center
08:18PM 40.7919 -95.0739 305° West 331 381 15,900 -1,980 Descending Minneapolis Center
08:18PM 40.7928 -95.1222 271° West 334 384 15,200 -2,280 Descending Minneapolis Center
08:19PM 40.8453 -95.1747 323° Northwest 339 390 13,600 -2,220 Descending Minneapolis Center
08:19PM 40.8564 -95.2150 290° West 338 389 13,000 -2,340 Descending Minneapolis Center
08:19PM 40.8981 -95.2644 318° Northwest 335 386 11,500 -2,460 Descending Minneapolis Center
08:20PM 40.9136 -95.3119 293° West 335 386 10,500 -1,620 Descending Minneapolis Center
08:20PM 40.9553 -95.3622 318° Northwest 337 388 9,900 -1,200 Descending Minneapolis Center
08:21PM 40.9714 -95.4036 297° West 333 383 9,300 -1,680 Descending Minneapolis Center
08:21PM 41.0028 -95.4422 317° Northwest 300 345 8,400 -1,560 Descending Minneapolis Center
08:22PM 41.0222 -95.4881 299° West 314 361 7,700 -1,440 Descending Minneapolis Center
08:23PM 41.0839 -95.5908 309° West 302 348 6,000 -1,500 Descending Minneapolis Center
08:24PM 41.1342 -95.6739 309° West 296 341 4,700 -1,020 Descending Minneapolis Center
08:25PM 41.1811 -95.7522 309° West 286 329 3,900 -960 Descending Minneapolis Center
08:26PM 41.2169 -95.8108 309° West 237 273 2,800 -960 Descending Minneapolis Center
08:27PM 41.2494 -95.8456 321° Northwest 187 215 2,000 -720 Descending Minneapolis Center
08:28PM 41.2789 -95.8733 325° Northwest 155 178 1,400 -480 Descending Minneapolis Center
08:29PM 41.3139 -95.9064 325° Northwest 147 169 1,100 -300 Descending Minneapolis Center
08:31PM 41.3032 -95.8941 90° East  Level Estimated